• Join FlightAware (Why Join?)
  • Login
  • US Flag 
04:53PM EST


 

Airport Tracker/Info


-or-


 

Live Flight TrackerFlight Track Log ✈ N589H ✈ 23-Jan-2014 ✈ CYPQ - KCLT

Flight Track Log - Related Links

Times and Time Zones

All times are in EST time to prevent confusion due to time zone crossing. See the N589H flight status page for this flight to view local times or setup timezone preferences in your user account.

Time Position Orientation Groundspeed Altitude Reporting Facility
EST Latitude Longitude Course Direction KTS MPH feet Rate Location/Type
12:13AM 44.0333 -78.4000 191° South 250 288 8,500  Level Toronto Center
12:14AM 43.9833 -78.4000 180° South 220 253 10,600 2,160 Climbing Toronto Center
12:15AM 43.9167 -78.4333 200° South 220 253 12,900 2,100 Climbing Toronto Center
12:16AM 43.8667 -78.4500 194° South 220 253 14,900 1,800 Climbing Toronto Center
12:17AM 43.6199 -78.5167 180° South  Level FlightAware Approximate
12:17AM 43.8000 -78.4500 180° South 230 265 16,600  Level Toronto Center
12:18AM 43.5328 -78.5391 191° South  Level FlightAware Approximate
12:18AM 43.7333 -78.4833 200° South 240 276 17,900  Level Toronto Center
12:19AM 43.6833 -78.5000 194° South 250 288 19,500 1,620 Climbing Toronto Center
12:20AM 43.6000 -78.5333 196° South 260 299 21,200 1,680 Climbing Toronto Center
12:21AM 43.5333 -78.5500 190° South 260 299 22,900 1,680 Climbing Toronto Center
12:22AM 43.4667 -78.5833 200° South 270 311 24,600 1,680 Climbing Toronto Center
12:23AM 43.3833 -78.6000 188° South 280 322 26,300 1,440 Climbing Toronto Center
12:24AM 43.3167 -78.6167 190° South 290 334 27,500 1,380 Climbing Toronto Center
12:25AM 43.2333 -78.6500 196° South 300 345 29,100 1,320 Climbing Toronto Center
12:26AM 43.1500 -78.6667 188° South 300 345 30,200 1,200 Climbing Toronto Center
12:27AM 43.0667 -78.7000 196° South 300 345 31,500 900 Climbing Toronto Center
12:28AM 42.9833 -78.7167 188° South 310 357 32,000 240 Climbing Toronto Center
12:29AM 42.9000 -78.7500 196° South 330 380 32,000  Level Toronto Center
12:30AM 42.8000 -78.7667 187° South 340 391 32,000  Level Toronto Center
12:31AM 42.7000 -78.8167 200° South 350 403 32,000  Level Toronto Center
12:32AM 42.6000 -78.8333 187° South 360 414 32,000  Level Toronto Center
12:33AM 42.5000 -78.8667 194° South 360 414 32,000  Level Toronto Center
12:34AM 42.4167 -78.9167 204° Southwest 360 414 32,000  Level Toronto Center
12:35AM 42.3167 -78.9333 187° South 360 414 32,000  Level Toronto Center
12:36AM 42.2167 -78.9667 194° South 360 414 32,000  Level Toronto Center
12:37AM 42.1167 -79.0000 194° South 360 414 32,000  Level Toronto Center
12:38AM 42.0167 -79.0333 194° South 360 414 32,000  Level Toronto Center
12:39AM 41.9167 -79.0500 187° South 360 414 32,000  Level Toronto Center
12:40AM 41.7931 -79.1142 201° Southwest 366 421 32,000  Level Cleveland Center
12:41AM 41.6953 -79.1456 193° South 364 419 32,000  Level Cleveland Center
12:42AM 41.5983 -79.1750 193° South 374 430 32,000  Level Cleveland Center
12:43AM 41.5025 -79.2039 193° South 360 414 32,000  Level Cleveland Center
12:44AM 41.4072 -79.2322 193° South 357 411 32,000  Level Cleveland Center
12:45AM 41.3125 -79.2603 193° South 356 410 32,000  Level Cleveland Center
12:46AM 41.2236 -79.2878 193° South 356 410 32,000  Level Cleveland Center
12:47AM 41.1272 -79.3206 194° South 360 414 32,000  Level Cleveland Center
12:48AM 41.0331 -79.3489 193° South 354 407 32,000  Level Cleveland Center
12:49AM 40.9358 -79.3783 193° South 357 411 32,000  Level Cleveland Center
12:50AM 40.8417 -79.4056 192° South 354 407 32,000  Level Cleveland Center
12:51AM 40.7464 -79.4339 193° South 350 403 32,000  Level Cleveland Center
12:52AM 40.6531 -79.4608 192° South 350 403 32,000  Level Cleveland Center
12:53AM 40.5581 -79.4900 193° South 351 404 32,000  Level Cleveland Center
12:54AM 40.4619 -79.5175 192° South 354 407 32,000  Level Cleveland Center
12:55AM 40.3683 -79.5450 193° South 349 402 32,000  Level Cleveland Center
12:56AM 40.2758 -79.5725 193° South 344 396 32,000  Level Cleveland Center
12:57AM 40.1861 -79.5975 192° South 332 382 32,000  Level Cleveland Center
12:58AM 40.0925 -79.6244 192° South 336 387 32,000  Level Cleveland Center
12:59AM 40.0000 -79.6494 192° South 338 389 32,000  Level Cleveland Center
01:00AM 39.9064 -79.6764 192° South 340 391 32,000  Level Cleveland Center
01:01AM 39.8144 -79.7022 192° South 340 391 32,000  Level Cleveland Center
01:02AM 39.7228 -79.7289 193° South 338 389 32,000  Level Cleveland Center
01:03AM 39.6317 -79.7542 192° South 337 388 32,000  Level Cleveland Center
01:04AM 39.5422 -79.7803 193° South 335 386 32,000  Level Cleveland Center
01:05AM 39.4517 -79.8053 192° South 332 382 32,000  Level Cleveland Center
01:06AM 39.3597 -79.8308 192° South 334 384 32,000  Level Cleveland Center
01:07AM 39.2697 -79.8569 193° South 333 383 32,000  Level Cleveland Center
01:08AM 39.1803 -79.8825 192° South 333 383 32,000  Level Cleveland Center
01:09AM 39.0906 -79.9069 192° South 330 380 32,000  Level Cleveland Center
01:10AM 38.9847 -79.9419 194° South 342 394 32,000  Level Washington Center
01:11AM 38.8961 -79.9714 195° South 337 388 32,000  Level Washington Center
01:12AM 38.8142 -79.9906 190° South 337 388 32,000  Level Washington Center
01:13AM 38.7278 -80.0144 192° South 337 388 32,000  Level Washington Center
01:14AM 38.6372 -80.0411 193° South 332 382 32,000  Level Washington Center
01:15AM 38.5508 -80.0650 192° South 332 382 32,000  Level Washington Center
01:16AM 38.4625 -80.0864 191° South 332 382 32,000  Level Washington Center
01:17AM 38.3675 -80.1150 193° South 327 376 32,000  Level Washington Center
01:18AM 38.2811 -80.1389 192° South 322 371 32,000  Level Washington Center
01:19AM 38.1925 -80.1625 192° South 322 371 32,000  Level Washington Center
01:20AM 38.1042 -80.1861 192° South 322 371 32,000  Level Washington Center
01:21AM 38.0156 -80.2097 192° South 322 371 32,000  Level Washington Center
01:22AM 37.9375 -80.2311 192° South 322 371 32,000  Level Washington Center
01:23AM 37.8533 -80.2522 191° South 322 371 32,000  Level Washington Center
01:24AM 37.7647 -80.2758 192° South 322 371 32,000  Level Washington Center
01:25AM 37.6783 -80.2992 192° South 322 371 32,000 -420 Level Washington Center
01:27AM 37.5453 -80.3356 192° South 322 371 31,000 -840 Descending Atlanta Center
01:28AM 37.4606 -80.3553 190° South 322 371 29,900 -1,140 Descending Atlanta Center
01:29AM 37.3778 -80.3775 192° South 315 362 28,800 -960 Descending Atlanta Center
01:30AM 37.3011 -80.3967 191° South 303 349 28,000 -420 Descending Atlanta Center
01:31AM 37.2267 -80.4183 193° South 287 330 28,000  Level Atlanta Center
01:32AM 37.1461 -80.4378 191° South 277 319 28,000  Level Atlanta Center
01:33AM 37.0697 -80.4594 193° South 277 319 28,000  Level Atlanta Center
01:34AM 36.9950 -80.4786 192° South 277 319 28,000  Level Atlanta Center
01:35AM 36.9186 -80.5000 193° South 277 319 28,000  Level Atlanta Center
01:36AM 36.8442 -80.5189 191° South 277 319 28,000  Level Atlanta Center
01:37AM 36.7675 -80.5378 191° South 277 319 28,000 -300 Level Atlanta Center
01:38AM 36.6972 -80.5592 194° South 277 319 27,500 -840 Descending Atlanta Center
01:39AM 36.6142 -80.5783 190° South 277 319 26,400 -1,260 Descending Atlanta Center
01:40AM 36.5356 -80.5972 191° South 277 319 25,000 -1,380 Descending Atlanta Center
01:41AM 36.4589 -80.6186 193° South 277 319 23,700 -1,320 Descending Atlanta Center
01:42AM 36.3889 -80.6422 195° South 277 319 22,400 -1,320 Descending Atlanta Center
01:43AM 36.3225 -80.6603 192° South 267 307 21,100 -1,380 Descending Atlanta Center
01:44AM 36.2522 -80.6814 194° South 260 299 19,700 -1,380 Descending Atlanta Center
01:45AM 36.1817 -80.6997 192° South 260 299 18,400 -1,080 Descending Atlanta Center
01:46AM 36.1092 -80.7181 192° South 260 299 17,600 -1,080 Descending Atlanta Center
01:46AM 36.0825 -80.7269 195° South 269 310 17,000 -1,440 Descending Atlanta Center
01:47AM 36.0347 -80.7392 192° South 265 305 16,200 -1,200 Descending Atlanta Center
01:47AM 36.0181 -80.7425 189° South 277 319 15,900 -1,140 Descending Atlanta Center
01:48AM 35.9581 -80.7578 192° South 277 319 15,100 -840 Descending Atlanta Center
01:48AM 35.9311 -80.7664 195° South 276 318 15,000 -120 Descending Atlanta Center
01:49AM 35.8856 -80.7786 192° South 277 319 15,000  Level Atlanta Center
01:49AM 35.8586 -80.7847 190° South 272 313 15,000  Level Atlanta Center
01:50AM 35.8111 -80.7969 192° South 277 319 15,000  Level Atlanta Center
01:50AM 35.7819 -80.8058 194° South 273 314 15,000  Level Atlanta Center
01:51AM 35.7364 -80.8153 190° South 277 319 15,000 -240 Level Atlanta Center
01:51AM 35.7075 -80.8242 194° South 273 314 14,800 -840 Descending Atlanta Center
01:52AM 35.6617 -80.8336 190° South 277 319 14,200 -1,020 Descending Atlanta Center
01:52AM 35.6369 -80.8422 196° South 266 306 13,800 -1,020 Descending Atlanta Center
01:53AM 35.5936 -80.8542 193° South 271 312 13,200 -1,020 Descending Atlanta Center
01:53AM 35.5686 -80.8603 191° South 250 288 12,800 -900 Descending Atlanta Center
01:54AM 35.5250 -80.8719 192° South 266 306 12,300 -900 Descending Atlanta Center
01:54AM 35.4961 -80.8758 186° South 258 297 11,900 -1,320 Descending Atlanta Center
01:55AM 35.4497 -80.8597 164° South 260 299 11,000 -1,620 Descending Atlanta Center
01:55AM 35.4161 -80.8481 164° South 289 333 10,300 -1,620 Descending Atlanta Center
01:56AM 35.3742 -80.8422 174° South 265 305 9,400 -1,620 Descending Atlanta Center
01:56AM 35.3386 -80.8411 179° South 270 311 8,700 -1,620 Descending Atlanta Center
01:57AM 35.2656 -80.8386 178° South 260 299 7,100 -1,620 Descending Atlanta Center
01:58AM 35.1947 -80.8389 180° South 245 282 5,500 -1,560 Descending Atlanta Center
01:59AM 35.1278 -80.8414 182° South 241 277 4,000 -1,200 Descending Atlanta Center
02:00AM 35.0914 -80.8861 225° Southwest 199 229 3,200 -900 Descending Atlanta Center
02:01AM 35.1156 -80.9308 303° West 172 198 2,300 -720 Descending Atlanta Center
02:02AM 35.1553 -80.9319 359° North 124 143 1,800 -600 Descending Atlanta Center
02:03AM 35.1867 -80.9358 354° North 106 122 1,100 -720 Descending Atlanta Center
02:05AM 35.2000 -80.9333 341° North  Level FlightAware Approximate
02:12AM 35.2137 -80.9491 341° North  Level Estimated